Terminal Aerodrome Forecast
Issued by NWS

Home | Current Version | Previous Version | Text Only | Print | Product List | Glossary On
Versions: 1 2 3 4 5 6 7 8 9 10 11 12 13 14 15 16
000
FTUS43 KAPX 182300
TAFAPN
TAF
KAPN 182320Z 1900/1924 VRB03KT P6SM SCT035
     FM190900 15003KT P6SM BKN030
     FM191500 17009KT P6SM SCT040=

USA.gov is the U.S. government's official web portal to all federal, state and local government web resources and services.